sensor_id;sensor_type;location;lat;lon;timestamp;pressure;altitude;pressure_sealevel;temperature;humidity
58686;BME280;44465;53.206;-6.106;2023-02-21T00:01:52;101781.66;;;20.86;54.14
58686;BME280;44465;53.206;-6.106;2023-02-21T00:04:36;101788.75;;;20.87;54.31
58686;BME280;44465;53.206;-6.106;2023-02-21T00:07:22;101749.66;;;20.59;54.19
58686;BME280;44465;53.206;-6.106;2023-02-21T00:10:07;101724.41;;;20.42;54.33
58686;BME280;44465;53.206;-6.106;2023-02-21T00:12:52;101720.81;;;20.43;54.22
58686;BME280;44465;53.206;-6.106;2023-02-21T00:15:35;101740.00;;;20.55;54.07
58686;BME280;44465;53.206;-6.106;2023-02-21T00:18:20;101716.38;;;20.42;54.05
58686;BME280;44465;53.206;-6.106;2023-02-21T00:21:04;101796.72;;;20.88;54.00
58686;BME280;44465;53.206;-6.106;2023-02-21T00:23:48;101796.69;;;20.90;53.96
58686;BME280;44465;53.206;-6.106;2023-02-21T00:26:32;101738.19;;;20.55;54.06
58686;BME280;44465;53.206;-6.106;2023-02-21T00:29:16;101786.94;;;20.87;53.96
58686;BME280;44465;53.206;-6.106;2023-02-21T00:32:01;101728.66;;;20.48;54.00
58686;BME280;44465;53.206;-6.106;2023-02-21T00:34:45;101764.44;;;20.69;54.06
58686;BME280;44465;53.206;-6.106;2023-02-21T00:37:29;101763.53;;;20.69;54.00
58686;BME280;44465;53.206;-6.106;2023-02-21T00:40:14;101792.56;;;20.81;54.14
58686;BME280;44465;53.206;-6.106;2023-02-21T00:42:59;101754.06;;;20.60;54.04
58686;BME280;44465;53.206;-6.106;2023-02-21T00:45:44;101750.59;;;20.58;53.92
58686;BME280;44465;53.206;-6.106;2023-02-21T00:48:28;101792.63;;;20.80;54.15
58686;BME280;44465;53.206;-6.106;2023-02-21T00:51:13;101790.88;;;20.79;54.24
58686;BME280;44465;53.206;-6.106;2023-02-21T00:53:57;101778.09;;;20.85;53.78
58686;BME280;44465;53.206;-6.106;2023-02-21T00:56:41;101750.91;;;20.72;53.95
58686;BME280;44465;53.206;-6.106;2023-02-21T00:59:25;101775.38;;;20.87;53.84
58686;BME280;44465;53.206;-6.106;2023-02-21T01:02:09;101750.84;;;20.75;53.80
58686;BME280;44465;53.206;-6.106;2023-02-21T01:04:54;101763.84;;;20.85;53.73
58686;BME280;44465;53.206;-6.106;2023-02-21T01:07:39;101760.13;;;20.89;53.88
58686;BME280;44465;53.206;-6.106;2023-02-21T01:10:23;101756.53;;;20.90;53.88
58686;BME280;44465;53.206;-6.106;2023-02-21T01:13:09;101751.31;;;20.85;53.93
58686;BME280;44465;53.206;-6.106;2023-02-21T01:15:53;101748.66;;;20.85;53.88
58686;BME280;44465;53.206;-6.106;2023-02-21T01:18:38;101718.22;;;20.64;54.02
58686;BME280;44465;53.206;-6.106;2023-02-21T01:21:23;101683.22;;;20.46;54.02
58686;BME280;44465;53.206;-6.106;2023-02-21T01:24:11;101674.50;;;20.41;53.72
58686;BME280;44465;53.206;-6.106;2023-02-21T01:26:57;101733.72;;;20.80;53.90
58686;BME280;44465;53.206;-6.106;2023-02-21T01:29:41;101733.59;;;20.83;53.72
58686;BME280;44465;53.206;-6.106;2023-02-21T01:32:25;101712.50;;;20.73;54.10
58686;BME280;44465;53.206;-6.106;2023-02-21T01:35:09;101670.69;;;20.49;53.66
58686;BME280;44465;53.206;-6.106;2023-02-21T01:37:53;101688.13;;;20.59;53.99
58686;BME280;44465;53.206;-6.106;2023-02-21T01:40:38;101700.03;;;20.74;53.76
58686;BME280;44465;53.206;-6.106;2023-02-21T01:43:24;101659.81;;;20.52;53.85
58686;BME280;44465;53.206;-6.106;2023-02-21T01:46:15;101720.19;;;20.83;53.68
58686;BME280;44465;53.206;-6.106;2023-02-21T01:49:04;101659.09;;;20.48;53.87
58686;BME280;44465;53.206;-6.106;2023-02-21T01:51:50;101723.63;;;20.86;53.71
58686;BME280;44465;53.206;-6.106;2023-02-21T01:54:47;101682.50;;;20.65;53.64
58686;BME280;44465;53.206;-6.106;2023-02-21T01:57:33;101674.47;;;20.65;53.68
58686;BME280;44465;53.206;-6.106;2023-02-21T02:00:19;101649.38;;;20.45;53.98
58686;BME280;44465;53.206;-6.106;2023-02-21T02:03:06;101655.56;;;20.48;53.84
58686;BME280;44465;53.206;-6.106;2023-02-21T02:05:55;101684.25;;;20.66;53.58
58686;BME280;44465;53.206;-6.106;2023-02-21T02:08:39;101654.63;;;20.49;53.69
58686;BME280;44465;53.206;-6.106;2023-02-21T02:15:09;101690.47;;;20.67;53.75
58686;BME280;44465;53.206;-6.106;2023-02-21T02:21:08;101711.13;;;20.87;53.78
58686;BME280;44465;53.206;-6.106;2023-02-21T02:26:53;101713.72;;;20.88;53.71
58686;BME280;44465;53.206;-6.106;2023-02-21T02:37:32;101706.59;;;20.89;53.83
58686;BME280;44465;53.206;-6.106;2023-02-21T02:42:56;101678.63;;;20.72;53.88
58686;BME280;44465;53.206;-6.106;2023-02-21T02:48:01;101618.56;;;20.35;53.91
58686;BME280;44465;53.206;-6.106;2023-02-21T02:50:30;101675.16;;;20.70;54.10
58686;BME280;44465;53.206;-6.106;2023-02-21T02:53:00;101621.00;;;20.41;53.87
58686;BME280;44465;53.206;-6.106;2023-02-21T02:56:19;101682.16;;;20.74;53.98
58686;BME280;44465;53.206;-6.106;2023-02-21T02:58:43;101651.41;;;20.63;53.96
58686;BME280;44465;53.206;-6.106;2023-02-21T03:04:06;101680.03;;;20.83;54.07
58686;BME280;44465;53.206;-6.106;2023-02-21T03:09:26;101671.53;;;20.71;54.16
58686;BME280;44465;53.206;-6.106;2023-02-21T03:12:09;101622.38;;;20.52;54.21
58686;BME280;44465;53.206;-6.106;2023-02-21T03:14:51;101658.31;;;20.68;54.13
58686;BME280;44465;53.206;-6.106;2023-02-21T03:17:22;101620.50;;;20.54;53.74
58686;BME280;44465;53.206;-6.106;2023-02-21T03:19:51;101649.47;;;20.66;54.00
58686;BME280;44465;53.206;-6.106;2023-02-21T03:22:21;101595.44;;;20.34;53.94
58686;BME280;44465;53.206;-6.106;2023-02-21T03:24:49;101618.94;;;20.48;54.01
58686;BME280;44465;53.206;-6.106;2023-02-21T03:27:16;101603.16;;;20.42;53.89
58686;BME280;44465;53.206;-6.106;2023-02-21T03:29:51;101632.88;;;20.56;54.19
58686;BME280;44465;53.206;-6.106;2023-02-21T03:32:24;101616.28;;;20.48;53.97
58686;BME280;44465;53.206;-6.106;2023-02-21T03:34:52;101624.84;;;20.56;53.99
58686;BME280;44465;53.206;-6.106;2023-02-21T03:37:36;101655.28;;;20.77;54.11
58686;BME280;44465;53.206;-6.106;2023-02-21T03:40:14;101624.66;;;20.61;54.21
58686;BME280;44465;53.206;-6.106;2023-02-21T03:42:44;101585.41;;;20.39;54.04
58686;BME280;44465;53.206;-6.106;2023-02-21T03:45:10;101601.84;;;20.52;53.69
58686;BME280;44465;53.206;-6.106;2023-02-21T03:47:36;101646.31;;;20.79;53.91
58686;BME280;44465;53.206;-6.106;2023-02-21T03:50:02;101640.03;;;20.80;53.98
58686;BME280;44465;53.206;-6.106;2023-02-21T03:52:33;101603.34;;;20.59;53.96
58686;BME280;44465;53.206;-6.106;2023-02-21T03:54:58;101576.22;;;20.46;54.05
58686;BME280;44465;53.206;-6.106;2023-02-21T03:57:25;101598.72;;;20.63;53.96
58686;BME280;44465;53.206;-6.106;2023-02-21T03:59:51;101617.94;;;20.74;53.74
58686;BME280;44465;53.206;-6.106;2023-02-21T04:02:17;101582.84;;;20.58;53.73
58686;BME280;44465;53.206;-6.106;2023-02-21T04:04:44;101576.06;;;20.50;53.93
58686;BME280;44465;53.206;-6.106;2023-02-21T04:07:14;101612.47;;;20.77;53.58
58686;BME280;44465;53.206;-6.106;2023-02-21T04:09:40;101551.44;;;20.41;53.84
58686;BME280;44465;53.206;-6.106;2023-02-21T04:12:07;101584.53;;;20.61;53.87
58686;BME280;44465;53.206;-6.106;2023-02-21T04:14:34;101608.03;;;20.76;53.81
58686;BME280;44465;53.206;-6.106;2023-02-21T04:17:00;101598.34;;;20.72;53.82
58686;BME280;44465;53.206;-6.106;2023-02-21T04:19:26;101607.03;;;20.79;53.92
58686;BME280;44465;53.206;-6.106;2023-02-21T04:21:52;101569.41;;;20.60;53.89
58686;BME280;44465;53.206;-6.106;2023-02-21T04:24:18;101537.88;;;20.46;53.80
58686;BME280;44465;53.206;-6.106;2023-02-21T04:26:43;101583.22;;;20.71;53.66
58686;BME280;44465;53.206;-6.106;2023-02-21T04:29:09;101573.59;;;20.67;53.65
58686;BME280;44465;53.206;-6.106;2023-02-21T04:31:36;101554.31;;;20.59;53.59
58686;BME280;44465;53.206;-6.106;2023-02-21T04:34:06;101532.47;;;20.48;53.51
58686;BME280;44465;53.206;-6.106;2023-02-21T04:36:32;101524.44;;;20.48;53.52
58686;BME280;44465;53.206;-6.106;2023-02-21T04:38:58;101588.78;;;20.89;53.49
58686;BME280;44465;53.206;-6.106;2023-02-21T04:41:23;101535.81;;;20.53;53.55
58686;BME280;44465;53.206;-6.106;2023-02-21T04:43:49;101564.41;;;20.74;53.42
58686;BME280;44465;53.206;-6.106;2023-02-21T04:46:16;101545.13;;;20.65;53.86
58686;BME280;44465;53.206;-6.106;2023-02-21T04:48:43;101556.72;;;20.65;53.65
58686;BME280;44465;53.206;-6.106;2023-02-21T04:51:13;101535.63;;;20.57;53.78
58686;BME280;44465;53.206;-6.106;2023-02-21T04:53:39;101565.25;;;20.75;54.04
58686;BME280;44465;53.206;-6.106;2023-02-21T04:56:05;101527.78;;;20.53;53.69
58686;BME280;44465;53.206;-6.106;2023-02-21T04:58:30;101528.69;;;20.53;53.93
58686;BME280;44465;53.206;-6.106;2023-02-21T05:00:56;101562.41;;;20.80;53.75
58686;BME280;44465;53.206;-6.106;2023-02-21T05:03:22;101515.41;;;20.50;53.44
58686;BME280;44465;53.206;-6.106;2023-02-21T05:05:49;101571.09;;;20.85;53.79
58686;BME280;44465;53.206;-6.106;2023-02-21T05:08:15;101542.34;;;20.68;53.64
58686;BME280;44465;53.206;-6.106;2023-02-21T05:10:40;101558.75;;;20.81;53.61
58686;BME280;44465;53.206;-6.106;2023-02-21T05:13:06;101536.97;;;20.68;53.49
58686;BME280;44465;53.206;-6.106;2023-02-21T05:15:32;101520.31;;;20.61;53.90
58686;BME280;44465;53.206;-6.106;2023-02-21T05:17:57;101479.28;;;20.40;53.89
58686;BME280;44465;53.206;-6.106;2023-02-21T05:20:23;101479.16;;;20.43;53.79
58686;BME280;44465;53.206;-6.106;2023-02-21T05:22:48;101552.34;;;20.85;53.71
58686;BME280;44465;53.206;-6.106;2023-02-21T05:25:19;101556.91;;;20.83;53.65
58686;BME280;44465;53.206;-6.106;2023-02-21T05:27:45;101544.59;;;20.79;53.86
58686;BME280;44465;53.206;-6.106;2023-02-21T05:30:13;101537.72;;;20.71;53.70
58686;BME280;44465;53.206;-6.106;2023-02-21T05:32:38;101550.00;;;20.77;53.79
58686;BME280;44465;53.206;-6.106;2023-02-21T05:35:04;101542.97;;;20.74;53.76
58686;BME280;44465;53.206;-6.106;2023-02-21T05:37:30;101541.31;;;20.70;53.99
58686;BME280;44465;53.206;-6.106;2023-02-21T05:39:55;101547.41;;;20.75;54.18
58686;BME280;44465;53.206;-6.106;2023-02-21T05:42:21;101546.41;;;20.78;53.84
58686;BME280;44465;53.206;-6.106;2023-02-21T05:44:46;101534.19;;;20.71;53.83
58686;BME280;44465;53.206;-6.106;2023-02-21T05:47:13;101546.34;;;20.80;53.85
58686;BME280;44465;53.206;-6.106;2023-02-21T05:49:39;101529.63;;;20.73;53.65
58686;BME280;44465;53.206;-6.106;2023-02-21T05:52:05;101540.09;;;20.79;53.68
58686;BME280;44465;53.206;-6.106;2023-02-21T05:54:31;101535.81;;;20.75;53.92
58686;BME280;44465;53.206;-6.106;2023-02-21T05:56:57;101533.00;;;20.78;53.51
58686;BME280;44465;53.206;-6.106;2023-02-21T05:59:22;101534.75;;;20.79;53.71
58686;BME280;44465;53.206;-6.106;2023-02-21T06:01:48;101523.38;;;20.74;53.72
58686;BME280;44465;53.206;-6.106;2023-02-21T06:04:15;101528.53;;;20.79;53.69
58686;BME280;44465;53.206;-6.106;2023-02-21T06:06:40;101521.56;;;20.74;53.86
58686;BME280;44465;53.206;-6.106;2023-02-21T06:09:06;101526.16;;;20.71;54.00
58686;BME280;44465;53.206;-6.106;2023-02-21T06:11:33;101522.53;;;20.72;53.82
58686;BME280;44465;53.206;-6.106;2023-02-21T06:14:03;101508.75;;;20.60;53.89
58686;BME280;44465;53.206;-6.106;2023-02-21T06:16:36;101516.38;;;20.70;53.85
58686;BME280;44465;53.206;-6.106;2023-02-21T06:19:04;101480.72;;;20.49;54.03
58686;BME280;44465;53.206;-6.106;2023-02-21T06:21:30;101484.84;;;20.56;54.29
58686;BME280;44465;53.206;-6.106;2023-02-21T06:23:56;101508.28;;;20.71;53.89
58686;BME280;44465;53.206;-6.106;2023-02-21T06:26:22;101487.94;;;20.67;53.74
58686;BME280;44465;53.206;-6.106;2023-02-21T06:28:48;101431.38;;;20.34;53.96
58686;BME280;44465;53.206;-6.106;2023-02-21T06:31:15;101430.41;;;20.36;53.74
58686;BME280;44465;53.206;-6.106;2023-02-21T06:33:41;101489.69;;;20.68;53.70
58686;BME280;44465;53.206;-6.106;2023-02-21T06:36:15;101488.69;;;20.71;53.68
58686;BME280;44465;53.206;-6.106;2023-02-21T06:38:44;101453.88;;;20.50;53.65
58686;BME280;44465;53.206;-6.106;2023-02-21T06:41:10;101443.38;;;20.45;53.58
58686;BME280;44465;53.206;-6.106;2023-02-21T06:43:36;101479.09;;;20.65;53.33
58686;BME280;44465;53.206;-6.106;2023-02-21T06:46:02;101440.69;;;20.45;53.77
58686;BME280;44465;53.206;-6.106;2023-02-21T06:48:29;101426.09;;;20.32;53.64
58686;BME280;44465;53.206;-6.106;2023-02-21T06:50:54;101454.63;;;20.54;53.53
58686;BME280;44465;53.206;-6.106;2023-02-21T06:53:20;101430.41;;;20.36;53.90
58686;BME280;44465;53.206;-6.106;2023-02-21T06:55:45;101440.69;;;20.45;53.66
58686;BME280;44465;53.206;-6.106;2023-02-21T06:58:11;101432.25;;;20.34;53.53
58686;BME280;44465;53.206;-6.106;2023-02-21T07:00:36;101426.03;;;20.34;53.79
58686;BME280;44465;53.206;-6.106;2023-02-21T07:03:02;101483.31;;;20.71;53.80
58686;BME280;44465;53.206;-6.106;2023-02-21T07:05:27;101444.09;;;20.49;53.49
58686;BME280;44465;53.206;-6.106;2023-02-21T07:07:53;101446.78;;;20.49;53.73
58686;BME280;44465;53.206;-6.106;2023-02-21T07:10:19;101412.59;;;20.35;53.18
58686;BME280;44465;53.206;-6.106;2023-02-21T07:12:44;101436.09;;;20.49;53.61
58686;BME280;44465;53.206;-6.106;2023-02-21T07:15:10;101450.94;;;20.56;53.58
58686;BME280;44465;53.206;-6.106;2023-02-21T07:17:36;101415.16;;;20.38;53.83
58686;BME280;44465;53.206;-6.106;2023-02-21T07:20:02;101467.28;;;20.71;53.55
58686;BME280;44465;53.206;-6.106;2023-02-21T07:22:28;101448.97;;;20.60;53.57
58686;BME280;44465;53.206;-6.106;2023-02-21T07:24:55;101472.63;;;20.71;53.60
58686;BME280;44465;53.206;-6.106;2023-02-21T07:27:21;101472.63;;;20.71;53.64
58686;BME280;44465;53.206;-6.106;2023-02-21T07:29:48;101432.69;;;20.45;53.55
58686;BME280;44465;53.206;-6.106;2023-02-21T07:32:14;101393.19;;;20.30;54.02
58686;BME280;44465;53.206;-6.106;2023-02-21T07:34:40;101467.19;;;20.74;53.57
58686;BME280;44465;53.206;-6.106;2023-02-21T07:37:06;101398.53;;;20.30;53.65
58686;BME280;44465;53.206;-6.106;2023-02-21T07:39:31;101406.53;;;20.32;53.68
58686;BME280;44465;53.206;-6.106;2023-02-21T07:41:57;101399.47;;;20.29;53.76
58686;BME280;44465;53.206;-6.106;2023-02-21T07:44:27;101409.66;;;20.41;53.21
58686;BME280;44465;53.206;-6.106;2023-02-21T07:46:55;101388.84;;;20.27;53.36
58686;BME280;44465;53.206;-6.106;2023-02-21T07:49:20;101401.09;;;20.33;53.50
58686;BME280;44465;53.206;-6.106;2023-02-21T07:51:46;101462.03;;;20.68;53.55
58686;BME280;44465;53.206;-6.106;2023-02-21T07:54:11;101412.47;;;20.38;53.53
58686;BME280;44465;53.206;-6.106;2023-02-21T07:56:42;101409.94;;;20.35;53.55
58686;BME280;44465;53.206;-6.106;2023-02-21T07:59:08;101468.13;;;20.71;53.55
58686;BME280;44465;53.206;-6.106;2023-02-21T08:01:33;101409.72;;;20.40;53.65
58686;BME280;44465;53.206;-6.106;2023-02-21T08:03:59;101471.53;;;20.76;53.47
58686;BME280;44465;53.206;-6.106;2023-02-21T08:06:24;101400.16;;;20.34;53.55
58686;BME280;44465;53.206;-6.106;2023-02-21T08:08:50;101451.47;;;20.65;53.40
58686;BME280;44465;53.206;-6.106;2023-02-21T08:11:15;101431.59;;;20.50;53.58
58686;BME280;44465;53.206;-6.106;2023-02-21T08:13:41;101438.69;;;20.51;53.54
58686;BME280;44465;53.206;-6.106;2023-02-21T08:16:06;101447.41;;;20.56;53.86
58686;BME280;44465;53.206;-6.106;2023-02-21T08:18:32;101435.16;;;20.50;53.67
58686;BME280;44465;53.206;-6.106;2023-02-21T08:20:57;101386.25;;;20.26;53.41
58686;BME280;44465;53.206;-6.106;2023-02-21T08:23:23;101462.00;;;20.69;53.82
58686;BME280;44465;53.206;-6.106;2023-02-21T08:25:49;101409.72;;;20.40;53.52
58686;BME280;44465;53.206;-6.106;2023-02-21T08:28:15;101417.44;;;20.48;53.40
58686;BME280;44465;53.206;-6.106;2023-02-21T08:30:41;101383.44;;;20.29;53.83
58686;BME280;44465;53.206;-6.106;2023-02-21T08:33:07;101405.22;;;20.40;53.65
58686;BME280;44465;53.206;-6.106;2023-02-21T08:35:32;101439.91;;;20.64;53.33
58686;BME280;44465;53.206;-6.106;2023-02-21T08:37:58;101397.50;;;20.34;53.76
58686;BME280;44465;53.206;-6.106;2023-02-21T08:40:28;101394.81;;;20.34;53.83
58686;BME280;44465;53.206;-6.106;2023-02-21T08:42:56;101375.41;;;20.29;53.64
58686;BME280;44465;53.206;-6.106;2023-02-21T08:45:24;101417.44;;;20.48;53.74
58686;BME280;44465;53.206;-6.106;2023-02-21T08:47:49;101447.13;;;20.62;53.75
58686;BME280;44465;53.206;-6.106;2023-02-21T08:50:16;101437.63;;;20.55;53.64
58686;BME280;44465;53.206;-6.106;2023-02-21T08:52:45;101464.09;;;20.61;53.76
58686;BME280;44465;53.206;-6.106;2023-02-21T08:55:11;101457.00;;;20.60;53.76
58686;BME280;44465;53.206;-6.106;2023-02-21T08:57:36;101409.94;;;20.35;53.89
58686;BME280;44465;53.206;-6.106;2023-02-21T09:00:03;101389.06;;;20.23;54.08
58686;BME280;44465;53.206;-6.106;2023-02-21T09:02:30;101419.41;;;20.42;53.84
58686;BME280;44465;53.206;-6.106;2023-02-21T09:04:57;101418.56;;;20.42;53.55
58686;BME280;44465;53.206;-6.106;2023-02-21T09:07:24;101448.06;;;20.61;53.72
58686;BME280;44465;53.206;-6.106;2023-02-21T09:09:49;101404.47;;;20.38;53.84
58686;BME280;44465;53.206;-6.106;2023-02-21T09:12:15;101407.78;;;20.43;54.00
58686;BME280;44465;53.206;-6.106;2023-02-21T09:14:41;101385.38;;;20.25;53.67
58686;BME280;44465;53.206;-6.106;2023-02-21T09:17:10;101384.38;;;20.28;53.83
58686;BME280;44465;53.206;-6.106;2023-02-21T09:19:36;101447.53;;;20.73;53.60
58686;BME280;44465;53.206;-6.106;2023-02-21T09:22:02;101385.78;;;20.37;53.61
58686;BME280;44465;53.206;-6.106;2023-02-21T09:24:30;101384.97;;;20.35;53.32
58686;BME280;44465;53.206;-6.106;2023-02-21T09:26:58;101377.84;;;20.35;53.52
58686;BME280;44465;53.206;-6.106;2023-02-21T09:29:24;101439.91;;;20.64;53.78
58686;BME280;44465;53.206;-6.106;2023-02-21T09:31:50;101405.00;;;20.46;53.68
58686;BME280;44465;53.206;-6.106;2023-02-21T09:34:16;101363.97;;;20.25;53.80
58686;BME280;44465;53.206;-6.106;2023-02-21T09:36:42;101400.56;;;20.45;53.77
58686;BME280;44465;53.206;-6.106;2023-02-21T09:39:07;101418.63;;;20.61;53.63
58686;BME280;44465;53.206;-6.106;2023-02-21T09:41:34;101372.53;;;20.34;54.06
58686;BME280;44465;53.206;-6.106;2023-02-21T09:44:02;101423.03;;;20.62;53.61
58686;BME280;44465;53.206;-6.106;2023-02-21T09:46:49;101353.06;;;20.30;53.84
58686;BME280;44465;53.206;-6.106;2023-02-21T09:49:23;101337.97;;;20.29;53.92
58686;BME280;44465;53.206;-6.106;2023-02-21T09:51:50;101367.44;;;20.48;53.62
58686;BME280;44465;53.206;-6.106;2023-02-21T09:54:36;101384.91;;;20.57;53.88
58686;BME280;44465;53.206;-6.106;2023-02-21T09:57:06;101359.44;;;20.48;53.58
58686;BME280;44465;53.206;-6.106;2023-02-21T09:59:34;101335.84;;;20.37;53.49
58686;BME280;44465;53.206;-6.106;2023-02-21T10:04:58;101391.22;;;20.76;53.66
58686;BME280;44465;53.206;-6.106;2023-02-21T10:13:06;101379.63;;;20.76;53.80
58686;BME280;44465;53.206;-6.106;2023-02-21T10:20:54;101336.16;;;20.50;53.50
58686;BME280;44465;53.206;-6.106;2023-02-21T10:23:48;101318.69;;;20.41;53.38
58686;BME280;44465;53.206;-6.106;2023-02-21T10:26:21;101338.53;;;20.56;53.53
58686;BME280;44465;53.206;-6.106;2023-02-21T10:28:49;101315.91;;;20.44;53.65
58686;BME280;44465;53.206;-6.106;2023-02-21T10:33:49;101291.13;;;20.39;53.61
58686;BME280;44465;53.206;-6.106;2023-02-21T10:36:17;101346.66;;;20.75;53.50
58686;BME280;44465;53.206;-6.106;2023-02-21T10:41:33;101345.59;;;20.80;53.21
58686;BME280;44465;53.206;-6.106;2023-02-21T10:44:06;101325.63;;;20.66;53.17
58686;BME280;44465;53.206;-6.106;2023-02-21T10:46:39;101342.84;;;20.81;53.32
58686;BME280;44465;53.206;-6.106;2023-02-21T10:49:43;101348.09;;;20.83;53.55
58686;BME280;44465;53.206;-6.106;2023-02-21T10:52:16;101299.44;;;20.54;53.65
58686;BME280;44465;53.206;-6.106;2023-02-21T10:55:00;101297.44;;;20.59;53.65
58686;BME280;44465;53.206;-6.106;2023-02-21T10:57:27;101273.91;;;20.46;53.56
58686;BME280;44465;53.206;-6.106;2023-02-21T10:59:54;101266.69;;;20.49;53.56
58686;BME280;44465;53.206;-6.106;2023-02-21T11:02:38;101320.63;;;20.79;53.59
58686;BME280;44465;53.206;-6.106;2023-02-21T11:07:37;101260.22;;;20.53;53.29
58686;BME280;44465;53.206;-6.106;2023-02-21T11:10:25;101285.41;;;20.68;53.10
58686;BME280;44465;53.206;-6.106;2023-02-21T11:13:16;101287.28;;;20.66;53.46
58686;BME280;44465;53.206;-6.106;2023-02-21T11:15:43;101271.44;;;20.61;53.42
58686;BME280;44465;53.206;-6.106;2023-02-21T11:18:18;101236.56;;;20.43;53.42
58686;BME280;44465;53.206;-6.106;2023-02-21T11:20:46;101249.44;;;20.54;53.51
58686;BME280;44465;53.206;-6.106;2023-02-21T11:25:47;101258.59;;;20.69;53.45
58686;BME280;44465;53.206;-6.106;2023-02-21T11:30:48;101260.31;;;20.70;53.09
58686;BME280;44465;53.206;-6.106;2023-02-21T11:33:21;101278.69;;;20.80;53.65
58686;BME280;44465;53.206;-6.106;2023-02-21T11:35:49;101278.50;;;20.83;53.27
58686;BME280;44465;53.206;-6.106;2023-02-21T11:38:37;101243.75;;;20.62;53.53
58686;BME280;44465;53.206;-6.106;2023-02-21T11:41:26;101242.59;;;20.68;53.37
58686;BME280;44465;53.206;-6.106;2023-02-21T11:43:54;101211.22;;;20.52;53.48
58686;BME280;44465;53.206;-6.106;2023-02-21T11:46:39;101271.06;;;20.89;53.38
58686;BME280;44465;53.206;-6.106;2023-02-21T11:49:37;101270.22;;;20.89;53.72
58686;BME280;44465;53.206;-6.106;2023-02-21T11:52:09;101226.53;;;20.68;53.26
58686;BME280;44465;53.206;-6.106;2023-02-21T11:54:37;101192.53;;;20.51;53.64
58686;BME280;44465;53.206;-6.106;2023-02-21T12:17:04;101241.31;;;20.96;53.23
58686;BME280;44465;53.206;-6.106;2023-02-21T12:22:35;101185.69;;;20.64;53.11
58686;BME280;44465;53.206;-6.106;2023-02-21T12:36:20;101222.38;;;21.00;53.40
58686;BME280;44465;53.206;-6.106;2023-02-21T12:47:18;101181.13;;;20.85;53.29
58686;BME280;44465;53.206;-6.106;2023-02-21T12:52:33;101207.88;;;21.04;53.19
58686;BME280;44465;53.206;-6.106;2023-02-21T13:00:23;101207.88;;;21.04;53.23
58686;BME280;44465;53.206;-6.106;2023-02-21T13:03:10;101201.59;;;21.05;53.29
58686;BME280;44465;53.206;-6.106;2023-02-21T13:05:47;101189.28;;;21.01;53.40
58686;BME280;44465;53.206;-6.106;2023-02-21T13:08:25;101172.59;;;20.96;53.23
58686;BME280;44465;53.206;-6.106;2023-02-21T13:13:22;101157.59;;;20.92;53.26
58686;BME280;44465;53.206;-6.106;2023-02-21T13:15:50;101175.97;;;21.00;53.28
58686;BME280;44465;53.206;-6.106;2023-02-21T13:18:34;101128.19;;;20.73;53.38
58686;BME280;44465;53.206;-6.106;2023-02-21T13:21:15;101133.16;;;20.81;53.20
58686;BME280;44465;53.206;-6.106;2023-02-21T13:23:49;101145.09;;;20.92;53.12
58686;BME280;44465;53.206;-6.106;2023-02-21T13:26:35;101178.84;;;21.14;53.02
58686;BME280;44465;53.206;-6.106;2023-02-21T13:29:15;101132.78;;;20.88;53.24
58686;BME280;44465;53.206;-6.106;2023-02-21T13:31:42;101176.00;;;21.17;53.38
58686;BME280;44465;53.206;-6.106;2023-02-21T13:34:11;101134.06;;;20.99;53.18
58686;BME280;44465;53.206;-6.106;2023-02-21T13:41:55;101143.09;;;21.15;53.20
58686;BME280;44465;53.206;-6.106;2023-02-21T13:44:32;101147.41;;;21.18;53.45
58686;BME280;44465;53.206;-6.106;2023-02-21T13:47:14;101131.59;;;21.13;53.28
58686;BME280;44465;53.206;-6.106;2023-02-21T13:49:50;101134.03;;;21.18;53.36
58686;BME280;44465;53.206;-6.106;2023-02-21T14:05:18;101039.34;;;20.84;53.23
58686;BME280;44465;53.206;-6.106;2023-02-21T14:07:47;101042.66;;;20.89;53.07
58686;BME280;44465;53.206;-6.106;2023-02-21T14:10:29;101061.56;;;21.03;53.42
58686;BME280;44465;53.206;-6.106;2023-02-21T14:15:38;101033.50;;;20.93;53.05
58686;BME280;44465;53.206;-6.106;2023-02-21T14:18:05;101068.16;;;21.14;53.28
58686;BME280;44465;53.206;-6.106;2023-02-21T14:20:38;101084.53;;;21.25;53.60
58686;BME280;44465;53.206;-6.106;2023-02-21T14:23:04;101075.09;;;21.18;53.64
58686;BME280;44465;53.206;-6.106;2023-02-21T14:25:32;101038.72;;;20.96;53.32
58686;BME280;44465;53.206;-6.106;2023-02-21T14:27:58;101030.44;;;21.01;53.77
58686;BME280;44465;53.206;-6.106;2023-02-21T14:30:33;101011.78;;;20.82;53.39
58686;BME280;44465;53.206;-6.106;2023-02-21T14:33:17;101043.59;;;21.05;53.39
58686;BME280;44465;53.206;-6.106;2023-02-21T14:35:58;101042.50;;;21.10;53.63
58686;BME280;44465;53.206;-6.106;2023-02-21T14:38:28;101055.41;;;21.19;53.34
58686;BME280;44465;53.206;-6.106;2023-02-21T14:47:19;101009.13;;;20.99;53.49
58686;BME280;44465;53.206;-6.106;2023-02-21T14:49:44;101058.41;;;21.30;53.48
58686;BME280;44465;53.206;-6.106;2023-02-21T15:03:31;101006.22;;;21.04;53.59
58686;BME280;44465;53.206;-6.106;2023-02-21T15:06:10;101028.16;;;21.28;53.28
58686;BME280;44465;53.206;-6.106;2023-02-21T15:08:41;101023.72;;;21.27;53.45
58686;BME280;44465;53.206;-6.106;2023-02-21T15:13:40;101018.06;;;21.16;53.64
58686;BME280;44465;53.206;-6.106;2023-02-21T15:16:11;100963.38;;;20.86;53.69
58686;BME280;44465;53.206;-6.106;2023-02-21T15:18:38;101023.41;;;21.33;53.42
58686;BME280;44465;53.206;-6.106;2023-02-21T15:23:32;100995.63;;;21.18;53.48
58686;BME280;44465;53.206;-6.106;2023-02-21T15:26:01;100985.78;;;21.19;53.04
58686;BME280;44465;53.206;-6.106;2023-02-21T15:28:40;100975.38;;;21.13;53.48
58686;BME280;44465;53.206;-6.106;2023-02-21T15:31:09;100955.00;;;21.10;53.13
58686;BME280;44465;53.206;-6.106;2023-02-21T15:33:37;100986.25;;;21.27;53.00
58686;BME280;44465;53.206;-6.106;2023-02-21T15:36:07;100974.56;;;21.28;53.08
58686;BME280;44465;53.206;-6.106;2023-02-21T15:46:44;100941.22;;;21.18;52.95